createdAt,value
2019-06-01T00:00:55.559Z,99.9
2019-06-01T00:02:02.771Z,99.9
2019-06-01T00:03:09.970Z,99.9
2019-06-01T00:04:17.304Z,99.9
2019-06-01T00:05:24.510Z,99.9
2019-06-01T00:06:31.446Z,99.9
2019-06-01T00:07:38.776Z,99.9
2019-06-01T00:08:47.232Z,99.9
2019-06-01T00:09:55.600Z,99.9
2019-06-01T00:11:02.826Z,99.9
2019-06-01T00:12:10.047Z,99.9
2019-06-01T00:13:17.253Z,99.9
2019-06-01T00:14:24.503Z,99.9
2019-06-01T00:15:31.717Z,99.9
2019-06-01T00:16:39.910Z,99.9
2019-06-01T00:17:51.757Z,99.9
2019-06-01T00:18:58.964Z,99.9
2019-06-01T00:20:05.903Z,99.9
2019-06-01T00:21:13.114Z,99.9
2019-06-01T00:22:20.315Z,99.9
2019-06-01T00:23:27.252Z,99.9
2019-06-01T00:24:34.478Z,99.9
2019-06-01T00:25:42.576Z,99.9
2019-06-01T00:26:52.060Z,99.9
2019-06-01T00:27:59.334Z,99.9
2019-06-01T00:29:06.535Z,99.9
2019-06-01T00:30:26.107Z,99.9
2019-06-01T00:31:34.377Z,99.9
2019-06-01T00:32:41.582Z,99.9
2019-06-01T00:33:51.698Z,99.9
2019-06-01T00:34:58.996Z,99.9
2019-06-01T00:36:06.199Z,99.9
2019-06-01T00:37:13.427Z,99.9
2019-06-01T00:38:20.362Z,99.9
2019-06-01T00:39:27.576Z,99.9
2019-06-01T00:40:34.522Z,99.9
2019-06-01T00:41:41.930Z,99.9
2019-06-01T00:42:50.306Z,99.9
2019-06-01T00:43:58.773Z,99.9
2019-06-01T00:45:05.715Z,99.9
2019-06-01T00:46:12.920Z,99.9
2019-06-01T00:47:19.849Z,99.9
2019-06-01T00:48:27.057Z,99.9
2019-06-01T00:49:34.281Z,99.9
2019-06-01T00:50:42.931Z,99.9
2019-06-01T00:51:53.742Z,99.9
2019-06-01T00:53:01.024Z,99.9
2019-06-01T00:54:08.253Z,99.9
2019-06-01T00:55:15.178Z,99.9
2019-06-01T00:56:22.111Z,99.9
2019-06-01T00:57:28.780Z,99.9
2019-06-01T00:58:35.984Z,99.9
2019-06-01T00:59:43.661Z,99.9
2019-06-01T01:00:53.707Z,99.9
2019-06-01T01:02:02.046Z,99.9
2019-06-01T01:03:08.974Z,99.9
2019-06-01T01:04:16.185Z,99.9
2019-06-01T01:05:23.398Z,99.9
2019-06-01T01:06:30.600Z,99.9
2019-06-01T01:07:38.327Z,99.9
2019-06-01T01:08:47.038Z,99.9
2019-06-01T01:09:56.868Z,99.9
2019-06-01T01:11:04.070Z,99.9
2019-06-01T01:12:11.296Z,99.9
2019-06-01T01:13:18.500Z,99.9
2019-06-01T01:14:25.433Z,99.9
2019-06-01T01:15:32.632Z,99.9
2019-06-01T01:16:39.837Z,99.9
2019-06-01T01:17:47.839Z,99.9
2019-06-01T01:18:56.089Z,99.9
2019-06-01T01:20:03.281Z,99.9
2019-06-01T01:21:10.496Z,99.9
2019-06-01T01:22:17.705Z,99.9
2019-06-01T01:23:24.640Z,99.9
2019-06-01T01:24:31.565Z,99.9
2019-06-01T01:25:38.788Z,99.9
2019-06-01T01:26:46.394Z,99.9
2019-06-01T01:27:54.859Z,99.9
2019-06-01T01:29:03.359Z,99.9
2019-06-01T01:30:10.565Z,99.9
2019-06-01T01:31:17.698Z,99.9
2019-06-01T01:32:24.937Z,99.9
2019-06-01T01:33:31.880Z,99.9
2019-06-01T01:34:39.081Z,99.9
2019-06-01T01:35:46.006Z,99.9
2019-06-01T01:36:56.046Z,99.9
2019-06-01T01:38:04.391Z,99.9
2019-06-01T01:39:11.599Z,99.9
2019-06-01T01:40:18.802Z,99.9
2019-06-01T01:41:25.729Z,99.9
2019-06-01T01:42:32.949Z,99.9
2019-06-01T01:43:39.885Z,99.9
2019-06-01T01:44:48.162Z,99.9
2019-06-01T01:45:56.925Z,99.9
2019-06-01T01:47:05.294Z,99.9
2019-06-01T01:48:12.499Z,99.9
2019-06-01T01:49:19.705Z,99.9
2019-06-01T01:50:26.911Z,99.9
2019-06-01T01:51:34.114Z,99.9
2019-06-01T01:52:41.321Z,99.9
2019-06-01T01:53:48.531Z,99.9
2019-06-01T01:54:56.865Z,99.9
2019-06-01T01:56:05.167Z,99.9
2019-06-01T01:57:12.367Z,99.9
2019-06-01T01:58:19.035Z,99.9
2019-06-01T01:59:25.953Z,99.9
2019-06-01T02:00:33.155Z,99.9
2019-06-01T02:01:40.358Z,99.9
2019-06-01T02:02:47.568Z,99.9
2019-06-01T02:03:55.453Z,99.9
2019-06-01T02:05:05.371Z,99.9
2019-06-01T02:06:12.574Z,99.9
2019-06-01T02:07:19.782Z,99.9
2019-06-01T02:08:26.985Z,99.9
2019-06-01T02:09:34.200Z,99.9
2019-06-01T02:10:41.401Z,99.9
2019-06-01T02:11:48.602Z,99.9
2019-06-01T02:12:57.514Z,99.9
2019-06-01T02:14:05.934Z,99.9
2019-06-01T02:15:13.136Z,99.9
2019-06-01T02:16:20.342Z,99.9
2019-06-01T02:17:27.546Z,99.9
2019-06-01T02:18:34.771Z,99.9
2019-06-01T02:19:41.976Z,99.9
2019-06-01T02:20:48.905Z,99.9
2019-06-01T02:21:56.442Z,99.9
2019-06-01T02:23:04.775Z,99.9
2019-06-01T02:24:11.711Z,99.9
2019-06-01T02:25:18.915Z,99.9
2019-06-01T02:26:26.123Z,99.9
2019-06-01T02:27:33.326Z,99.9
2019-06-01T02:28:40.262Z,99.9
2019-06-01T02:29:47.464Z,99.9
2019-06-01T02:30:56.088Z,99.9
2019-06-01T02:32:07.878Z,99.9
2019-06-01T02:33:15.087Z,99.9
2019-06-01T02:34:22.290Z,99.9
2019-06-01T02:35:28.945Z,99.9
2019-06-01T02:36:36.160Z,99.9
2019-06-01T02:37:43.376Z,99.9
2019-06-01T02:38:50.583Z,99.9
2019-06-01T02:39:58.384Z,99.9
2019-06-01T02:41:11.357Z,99.9
2019-06-01T02:42:18.283Z,99.9
2019-06-01T02:43:25.217Z,99.9
2019-06-01T02:44:32.453Z,99.9
2019-06-01T02:45:39.696Z,99.9
2019-06-01T02:46:46.900Z,99.9
2019-06-01T02:49:06.233Z,99.9
2019-06-01T02:50:13.238Z,99.9
2019-06-01T02:51:20.169Z,99.9
2019-06-01T02:52:27.375Z,99.9
2019-06-01T02:53:34.582Z,99.9
2019-06-01T02:54:41.781Z,99.9
2019-06-01T02:55:48.984Z,99.9
2019-06-01T02:56:56.188Z,99.9
2019-06-01T02:58:06.640Z,99.9
2019-06-01T02:59:13.978Z,99.9
2019-06-01T03:00:20.636Z,99.9
2019-06-01T03:01:27.847Z,99.9
2019-06-01T03:02:35.056Z,99.9
2019-06-01T03:03:42.264Z,99.9
2019-06-01T03:04:49.468Z,99.9
2019-06-01T03:05:57.418Z,99.9
2019-06-01T03:07:08.678Z,99.9
2019-06-01T03:08:15.931Z,99.9
2019-06-01T03:09:23.140Z,99.9
2019-06-01T03:10:30.344Z,99.9
2019-06-01T03:11:37.550Z,99.9
2019-06-01T03:12:44.496Z,99.9
2019-06-01T03:13:51.411Z,99.9
2019-06-01T03:14:58.615Z,99.9
2019-06-01T03:16:08.853Z,99.9
2019-06-01T03:17:16.143Z,99.9
2019-06-01T03:18:23.078Z,99.9
2019-06-01T03:19:30.291Z,99.9
2019-06-01T03:20:37.508Z,99.9
2019-06-01T03:21:44.440Z,99.9
2019-06-01T03:22:51.656Z,99.9
2019-06-01T03:23:59.685Z,99.9
2019-06-01T03:25:08.134Z,99.9
2019-06-01T03:26:15.056Z,99.9
2019-06-01T03:27:22.264Z,99.9
2019-06-01T03:28:29.469Z,99.9
2019-06-01T03:29:36.441Z,99.9
2019-06-01T03:30:45.280Z,99.9
2019-06-01T03:31:53.003Z,99.9
2019-06-01T03:33:01.134Z,99.9
2019-06-01T03:34:16.344Z,99.9
2019-06-01T03:35:23.548Z,99.9
2019-06-01T03:36:30.755Z,99.9
2019-06-01T03:37:37.685Z,99.9
2019-06-01T03:38:44.896Z,99.9
2019-06-01T03:39:52.144Z,99.9
2019-06-01T03:40:59.952Z,99.9
2019-06-01T03:42:09.292Z,99.9
2019-06-01T03:43:17.995Z,99.9
2019-06-01T03:44:25.197Z,99.9
2019-06-01T03:45:32.123Z,99.9
2019-06-01T03:46:39.326Z,99.9
2019-06-01T03:47:46.544Z,99.9
2019-06-01T03:48:53.749Z,99.9
2019-06-01T03:50:00.971Z,99.9
2019-06-01T03:51:11.953Z,99.9
2019-06-01T03:52:18.966Z,99.9
2019-06-01T03:53:26.176Z,99.9
2019-06-01T03:54:33.399Z,99.9
2019-06-01T03:55:40.593Z,99.9
2019-06-01T03:56:47.799Z,99.9
2019-06-01T03:57:55.005Z,99.9
2019-06-01T03:59:03.031Z,99.9
2019-06-01T04:00:11.942Z,99.9
2019-06-01T04:01:19.039Z,99.9
2019-06-01T04:02:32.981Z,99.9
2019-06-01T04:03:40.565Z,99.9
2019-06-01T04:04:47.556Z,99.9
2019-06-01T04:05:54.763Z,99.9
2019-06-01T04:07:03.304Z,99.9
2019-06-01T04:08:11.879Z,99.9
2019-06-01T04:09:19.085Z,99.9
2019-06-01T04:10:26.294Z,99.9
2019-06-01T04:11:33.500Z,99.9
2019-06-01T04:12:40.457Z,99.9
2019-06-01T04:13:47.655Z,99.9
2019-06-01T04:14:54.313Z,99.9
2019-06-01T04:16:01.728Z,99.9
2019-06-01T04:17:10.231Z,99.9
2019-06-01T04:18:18.927Z,99.9
2019-06-01T04:19:26.134Z,99.9
2019-06-01T04:20:33.065Z,99.9
2019-06-01T04:21:40.276Z,99.9
2019-06-01T04:22:47.484Z,99.9
2019-06-01T04:23:54.699Z,99.9
2019-06-01T04:25:02.069Z,99.9
2019-06-01T04:26:10.438Z,99.9
2019-06-01T04:27:19.017Z,99.9
2019-06-01T04:28:26.218Z,99.9
2019-06-01T04:29:33.426Z,99.9
2019-06-01T04:30:40.629Z,99.9
2019-06-01T04:31:47.833Z,99.9
2019-06-01T04:32:55.049Z,99.9
2019-06-01T04:34:02.480Z,99.9
2019-06-01T04:35:11.145Z,99.9
2019-06-01T04:36:19.573Z,99.9
2019-06-01T04:37:26.781Z,99.9
2019-06-01T04:38:33.739Z,99.9
2019-06-01T04:39:40.685Z,99.9
2019-06-01T04:40:47.896Z,99.9
2019-06-01T04:41:54.825Z,99.9
2019-06-01T04:43:01.757Z,99.9
2019-06-01T04:44:10.145Z,99.9
2019-06-01T04:45:18.472Z,99.9
2019-06-01T04:46:25.687Z,99.9
2019-06-01T04:47:32.889Z,99.9
2019-06-01T04:48:40.091Z,99.9
2019-06-01T04:49:47.291Z,99.9
2019-06-01T04:50:54.497Z,99.9
2019-06-01T04:52:01.705Z,99.9
2019-06-01T04:53:08.856Z,99.9
2019-06-01T04:54:19.284Z,99.9
2019-06-01T04:55:26.488Z,99.9
2019-06-01T04:56:33.693Z,99.9
2019-06-01T04:57:40.628Z,99.9
2019-06-01T04:58:47.564Z,99.9
2019-06-01T04:59:54.510Z,99.9
2019-06-01T05:01:01.721Z,99.9
2019-06-01T05:02:09.337Z,99.9
2019-06-01T05:03:19.446Z,99.9
2019-06-01T05:04:26.652Z,99.9
2019-06-01T05:05:33.855Z,99.9
2019-06-01T05:06:41.063Z,99.9
2019-06-01T05:07:48.297Z,99.9
2019-06-01T05:08:55.485Z,99.9
2019-06-01T05:10:02.697Z,99.9
2019-06-01T05:11:10.274Z,99.9
2019-06-01T05:12:19.797Z,99.9
2019-06-01T05:13:27.005Z,99.9
2019-06-01T05:14:33.945Z,99.9
2019-06-01T05:15:40.877Z,99.9
2019-06-01T05:16:48.082Z,99.9
2019-06-01T05:17:55.282Z,99.9
2019-06-01T05:19:02.488Z,99.9
2019-06-01T05:20:10.391Z,99.9
2019-06-01T05:21:20.814Z,99.9
2019-06-01T05:22:28.018Z,99.9
2019-06-01T05:23:34.953Z,99.9
2019-06-01T05:24:41.885Z,99.9
2019-06-01T05:25:49.087Z,99.9
2019-06-01T05:26:59.581Z,99.9
2019-06-01T05:28:07.048Z,99.9
2019-06-01T05:29:15.714Z,99.9
2019-06-01T05:30:24.737Z,99.9
2019-06-01T05:31:31.671Z,99.9
2019-06-01T05:32:38.879Z,99.9
2019-06-01T05:33:46.080Z,99.9
2019-06-01T05:34:53.006Z,99.9
2019-06-01T05:36:00.224Z,99.9
2019-06-01T05:37:08.489Z,99.9
2019-06-01T05:38:20.002Z,99.9
2019-06-01T05:39:27.226Z,99.9
2019-06-01T05:40:35.037Z,99.9
2019-06-01T05:41:41.963Z,99.9
2019-06-01T05:42:49.163Z,99.9
2019-06-01T05:43:56.389Z,99.9
2019-06-01T05:45:03.595Z,99.9
2019-06-01T05:46:11.650Z,99.9
2019-06-01T05:47:20.258Z,99.9
2019-06-01T05:48:30.696Z,99.9
2019-06-01T05:49:38.030Z,99.9
2019-06-01T05:50:44.975Z,99.9
2019-06-01T05:51:52.181Z,99.9
2019-06-01T05:52:59.106Z,99.9
2019-06-01T05:54:06.307Z,99.9
2019-06-01T05:55:14.559Z,99.9
2019-06-01T05:56:23.057Z,99.9
2019-06-01T05:57:30.250Z,99.9
2019-06-01T05:58:37.476Z,99.9
2019-06-01T05:59:44.680Z,99.9
2019-06-01T06:00:51.893Z,99.9
2019-06-01T06:01:59.101Z,99.9
2019-06-01T06:03:06.330Z,99.9
2019-06-01T06:04:13.526Z,99.9
2019-06-01T06:05:22.821Z,99.9
2019-06-01T06:06:30.092Z,99.9
2019-06-01T06:07:37.016Z,99.9
2019-06-01T06:08:44.221Z,99.9
2019-06-01T06:09:51.149Z,99.9
2019-06-01T06:10:58.086Z,99.9
2019-06-01T06:12:05.022Z,99.9
2019-06-01T06:13:13.297Z,99.9
2019-06-01T06:14:23.244Z,99.9
2019-06-01T06:15:30.447Z,99.9
2019-06-01T06:16:37.104Z,99.9
2019-06-01T06:17:44.039Z,99.9
2019-06-01T06:18:51.276Z,99.9
2019-06-01T06:19:58.519Z,99.9
2019-06-01T06:21:05.452Z,99.9
2019-06-01T06:22:12.672Z,99.9
2019-06-01T06:23:22.707Z,99.9
2019-06-01T06:24:30.008Z,99.9
2019-06-01T06:25:39.584Z,99.9
2019-06-01T06:26:48.079Z,99.9
2019-06-01T06:27:54.741Z,99.9
2019-06-01T06:29:01.676Z,99.9
2019-06-01T06:30:08.887Z,99.9
2019-06-01T06:31:16.828Z,99.9
2019-06-01T06:32:24.973Z,99.9
2019-06-01T06:33:32.182Z,99.9
2019-06-01T06:34:42.696Z,99.9
2019-06-01T06:35:49.911Z,99.9
2019-06-01T06:36:57.132Z,99.9
2019-06-01T06:38:04.342Z,99.9
2019-06-01T06:39:11.549Z,99.9
2019-06-01T06:40:20.168Z,99.9
2019-06-01T06:41:28.426Z,99.9
2019-06-01T06:42:35.640Z,99.9
2019-06-01T06:43:42.852Z,99.9
2019-06-01T06:44:50.058Z,99.9
2019-06-01T06:45:57.267Z,99.9
2019-06-01T06:47:04.482Z,99.9
2019-06-01T06:48:11.436Z,99.9
2019-06-01T06:49:19.137Z,99.9
2019-06-01T06:50:27.659Z,99.9
2019-06-01T06:51:34.860Z,99.9
2019-06-01T06:52:42.072Z,99.9
2019-06-01T06:53:49.278Z,99.9
2019-06-01T06:54:56.492Z,99.9
2019-06-01T06:56:03.696Z,99.9
2019-06-01T06:57:10.906Z,99.9
2019-06-01T06:58:18.777Z,99.9
2019-06-01T06:59:30.202Z,99.9
2019-06-01T07:00:37.426Z,99.9
2019-06-01T07:01:44.370Z,99.9
2019-06-01T07:02:51.634Z,99.9
2019-06-01T07:04:11.531Z,84.3
2019-06-01T07:05:21.254Z,99.2
2019-06-01T07:06:29.312Z,99.9
2019-06-01T07:07:36.250Z,88.4
2019-06-01T07:08:43.188Z,73.3
2019-06-01T07:09:50.400Z,85.3
2019-06-01T07:10:57.617Z,92.9
2019-06-01T07:12:04.817Z,83.2
2019-06-01T07:13:12.044Z,58.7
2019-06-01T07:14:19.309Z,73.1
2019-06-01T07:15:27.678Z,78.6
2019-06-01T07:16:34.885Z,90
2019-06-01T07:17:42.093Z,68.3
2019-06-01T07:18:49.329Z,77.2
2019-06-01T07:19:56.536Z,29.3
2019-06-01T07:21:03.753Z,21.5
2019-06-01T07:22:10.966Z,20.5
2019-06-01T07:23:18.184Z,28.1
2019-06-01T07:24:28.070Z,24.6
2019-06-01T07:25:35.453Z,26.9
2019-06-01T07:26:42.718Z,16.3
2019-06-01T07:27:49.996Z,16.3
2019-06-01T07:28:57.231Z,17
2019-06-01T07:30:04.440Z,54.9
2019-06-01T07:31:11.687Z,51.8
2019-06-01T07:32:20.083Z,65.3
2019-06-01T07:33:28.612Z,10.6
2019-06-01T07:34:41.445Z,10.6
2019-06-01T07:35:49.800Z,8.3
2019-06-01T07:36:57.026Z,29.8
2019-06-01T07:38:04.335Z,17.4
2019-06-01T07:39:11.298Z,41.1
2019-06-01T07:40:18.550Z,26
2019-06-01T07:41:28.857Z,18.4
2019-06-01T07:42:36.120Z,13.9
2019-06-01T07:43:43.065Z,10.1
2019-06-01T07:44:50.285Z,17
2019-06-01T07:45:57.505Z,18.6
2019-06-01T07:47:04.891Z,17.6
2019-06-01T07:48:11.825Z,1.2
2019-06-01T07:49:19.033Z,35.4
2019-06-01T07:50:29.072Z,1
2019-06-01T07:51:36.280Z,7.6
2019-06-01T07:52:43.488Z,5.5
2019-06-01T07:53:50.704Z,4
2019-06-01T07:54:57.926Z,2.9
2019-06-01T07:56:05.146Z,1
2019-06-01T07:57:12.084Z,1
2019-06-01T07:58:20.651Z,1
2019-06-01T07:59:30.641Z,16.1
2019-06-01T08:00:39.368Z,1
2019-06-01T08:01:46.594Z,1
2019-06-01T08:02:53.823Z,4
2019-06-01T08:04:00.761Z,3.6
2019-06-01T08:05:07.713Z,6.2
2019-06-01T08:06:15.024Z,1
2019-06-01T08:07:23.228Z,1
2019-06-01T08:08:35.100Z,1
2019-06-01T08:09:42.351Z,1
2019-06-01T08:10:49.291Z,1
2019-06-01T08:11:56.235Z,1
2019-06-01T08:13:03.446Z,1
2019-06-01T08:14:10.669Z,1
2019-06-01T08:15:17.882Z,1
2019-06-01T08:16:25.862Z,1
2019-06-01T08:17:35.758Z,1
2019-06-01T08:18:42.971Z,1
2019-06-01T08:19:51.826Z,1
2019-06-01T08:20:59.172Z,1
2019-06-01T08:22:06.440Z,1
2019-06-01T08:23:13.902Z,1
2019-06-01T08:24:22.096Z,1
2019-06-01T08:25:30.741Z,1
2019-06-01T08:26:39.190Z,1
2019-06-01T08:27:46.132Z,1
2019-06-01T08:28:53.343Z,1
2019-06-01T08:30:00.559Z,1
2019-06-01T08:31:07.772Z,1
2019-06-01T08:32:14.992Z,1
2019-06-01T08:33:26.164Z,1
2019-06-01T08:34:41.260Z,1
2019-06-01T08:35:48.467Z,1
2019-06-01T08:36:55.484Z,1
2019-06-01T08:38:02.739Z,1
2019-06-01T08:39:09.950Z,1
2019-06-01T08:40:17.170Z,1
2019-06-01T08:41:25.492Z,1
2019-06-01T08:42:35.690Z,1
2019-06-01T08:43:42.947Z,1
2019-06-01T08:44:49.907Z,1
2019-06-01T08:45:57.135Z,1
2019-06-01T08:47:04.087Z,1
2019-06-01T08:48:11.294Z,1
2019-06-01T08:49:18.509Z,1
2019-06-01T08:50:25.769Z,1
2019-06-01T08:51:34.286Z,1
2019-06-01T08:52:41.514Z,1
2019-06-01T08:53:48.446Z,1
2019-06-01T08:54:55.676Z,1
2019-06-01T08:56:02.896Z,1
2019-06-01T08:57:10.136Z,1
2019-06-01T08:58:17.348Z,1
2019-06-01T08:59:24.563Z,1
2019-06-01T09:00:34.710Z,1
2019-06-01T09:01:42.005Z,1
2019-06-01T09:02:49.209Z,1
2019-06-01T09:03:56.426Z,1
2019-06-01T09:05:03.640Z,1
2019-06-01T09:06:10.852Z,1
2019-06-01T09:07:18.083Z,1
2019-06-01T09:08:25.860Z,1
2019-06-01T09:09:35.289Z,1
2019-06-01T09:10:42.244Z,1
2019-06-01T09:11:49.459Z,1
2019-06-01T09:12:56.675Z,1
2019-06-01T09:14:03.891Z,1
2019-06-01T09:15:11.106Z,1
2019-06-01T09:16:18.933Z,1
2019-06-01T09:17:26.968Z,1
2019-06-01T09:18:35.934Z,1
2019-06-01T09:19:42.898Z,1
2019-06-01T09:20:50.111Z,1
2019-06-01T09:21:57.077Z,1
2019-06-01T09:23:04.291Z,1
2019-06-01T09:24:11.300Z,1
2019-06-01T09:25:18.539Z,1
2019-06-01T09:26:26.256Z,1
2019-06-01T09:27:36.091Z,1
2019-06-01T09:28:43.429Z,1
2019-06-01T09:29:50.642Z,1
2019-06-01T09:30:57.862Z,1
2019-06-01T09:32:05.074Z,1
2019-06-01T09:33:17.785Z,1
2019-06-01T09:34:26.149Z,1
2019-06-01T09:37:02.987Z,1
2019-06-01T09:38:10.205Z,1
2019-06-01T09:39:17.427Z,1
2019-06-01T09:40:24.381Z,1
2019-06-01T09:41:37.199Z,1
2019-06-01T09:42:44.428Z,1
2019-06-01T09:43:51.382Z,1
2019-06-01T09:44:58.604Z,1
2019-06-01T09:46:05.819Z,1
2019-06-01T09:47:13.048Z,1
2019-06-01T09:48:20.259Z,1
2019-06-01T09:49:27.475Z,1
2019-06-01T09:50:38.378Z,1
2019-06-01T09:51:45.595Z,1
2019-06-01T09:52:52.811Z,1
2019-06-01T09:54:00.023Z,1
2019-06-01T09:55:07.242Z,1
2019-06-01T09:56:14.282Z,1
2019-06-01T09:57:21.507Z,1
2019-06-01T09:58:30.042Z,1
2019-06-01T09:59:38.567Z,1
2019-06-01T10:00:45.779Z,1
2019-06-01T10:01:52.986Z,1
2019-06-01T10:03:00.206Z,1
2019-06-01T10:04:07.422Z,1
2019-06-01T10:06:38.688Z,1
2019-06-01T10:07:45.984Z,1
2019-06-01T10:08:52.922Z,1
2019-06-01T10:10:00.152Z,1
2019-06-01T10:11:07.368Z,1
2019-06-01T10:12:14.578Z,1
2019-06-01T10:13:21.794Z,1
2019-06-01T10:14:30.062Z,1
2019-06-01T10:15:38.481Z,1
2019-06-01T10:16:45.783Z,1
2019-06-01T10:17:52.989Z,1
2019-06-01T10:19:00.226Z,1
2019-06-01T10:20:07.528Z,1
2019-06-01T10:21:14.740Z,1
2019-06-01T10:22:21.953Z,1
2019-06-01T10:23:30.115Z,1
2019-06-01T10:24:42.302Z,1
2019-06-01T10:25:49.516Z,1
2019-06-01T10:26:56.738Z,1
2019-06-01T10:28:03.673Z,1
2019-06-01T10:29:11.017Z,1
2019-06-01T10:30:18.232Z,1
2019-06-01T10:31:25.198Z,1
2019-06-01T10:32:32.888Z,1
2019-06-01T10:33:43.948Z,1
2019-06-01T10:34:51.164Z,1
2019-06-01T10:35:58.380Z,1
2019-06-01T10:37:05.595Z,1
2019-06-01T10:38:12.806Z,1
2019-06-01T10:39:20.025Z,1
2019-06-01T10:40:27.259Z,1
2019-06-01T10:41:35.309Z,1
2019-06-01T10:42:43.727Z,1
2019-06-01T10:43:50.665Z,1
2019-06-01T10:44:57.609Z,1
2019-06-01T10:46:04.609Z,1
2019-06-01T10:47:11.830Z,1
2019-06-01T10:48:19.047Z,1
2019-06-01T10:49:26.289Z,1
2019-06-01T10:50:34.815Z,1
2019-06-01T10:51:46.395Z,1
2019-06-01T10:52:53.598Z,1
2019-06-01T10:54:00.819Z,1
2019-06-01T10:55:07.761Z,1
2019-06-01T10:56:14.977Z,1
2019-06-01T10:57:22.197Z,1
2019-06-01T10:58:29.431Z,1
2019-06-01T10:59:38.406Z,1
2019-06-01T11:00:50.777Z,1
2019-06-01T11:01:58.687Z,1
2019-06-01T11:03:05.944Z,1
2019-06-01T11:04:13.259Z,1
2019-06-01T11:05:20.475Z,1
2019-06-01T11:06:37.569Z,1
2019-06-01T11:07:55.325Z,1
2019-06-01T11:09:02.268Z,1
2019-06-01T11:10:09.261Z,1
2019-06-01T11:11:16.726Z,1
2019-06-01T11:12:23.673Z,1
2019-06-01T11:13:30.617Z,1
2019-06-01T11:14:41.265Z,1
2019-06-01T11:15:50.087Z,1
2019-06-01T11:16:56.990Z,1
2019-06-01T11:18:04.259Z,1
2019-06-01T11:19:11.490Z,1
2019-06-01T11:20:18.423Z,1
2019-06-01T11:21:25.102Z,1
2019-06-01T11:22:33.311Z,1
2019-06-01T11:23:46.082Z,1
2019-06-01T11:24:53.309Z,1
2019-06-01T11:26:00.525Z,1
2019-06-01T11:27:07.472Z,1
2019-06-01T11:28:14.422Z,1
2019-06-01T11:29:21.680Z,1
2019-06-01T11:30:28.917Z,1
2019-06-01T11:31:36.139Z,1
2019-06-01T11:32:46.010Z,1
2019-06-01T11:33:53.216Z,1
2019-06-01T11:35:00.442Z,1
2019-06-01T11:36:07.658Z,1
2019-06-01T11:37:15.649Z,1
2019-06-01T11:38:23.097Z,1
2019-06-01T11:39:30.327Z,1
2019-06-01T11:40:38.588Z,1
2019-06-01T11:41:50.588Z,1
2019-06-01T11:42:57.547Z,1
2019-06-01T11:44:04.765Z,1
2019-06-01T11:45:11.766Z,1
2019-06-01T11:46:18.995Z,1
2019-06-01T11:47:26.221Z,1
2019-06-01T11:48:34.993Z,1
2019-06-01T11:49:47.179Z,1
2019-06-01T11:50:54.122Z,1
2019-06-01T11:52:01.353Z,1
2019-06-01T11:53:08.573Z,1
2019-06-01T11:54:15.791Z,1
2019-06-01T11:55:23.008Z,1
2019-06-01T11:56:30.226Z,1
2019-06-01T11:57:37.514Z,1
2019-06-01T11:58:47.429Z,1
2019-06-01T11:59:54.642Z,1
2019-06-01T12:01:01.326Z,1
2019-06-01T12:02:08.555Z,1
2019-06-01T12:03:15.782Z,1
2019-06-01T12:04:22.999Z,1
2019-06-01T12:05:30.216Z,1
2019-06-01T12:06:37.698Z,1
2019-06-01T12:07:46.220Z,1
2019-06-01T12:08:53.443Z,1
2019-06-01T12:10:00.654Z,1
2019-06-01T12:11:07.872Z,1
2019-06-01T12:12:15.119Z,1
2019-06-01T12:13:22.334Z,1
2019-06-01T12:14:29.555Z,1
2019-06-01T12:15:38.010Z,1
2019-06-01T12:16:48.047Z,1
2019-06-01T12:17:55.265Z,1
2019-06-01T12:19:02.480Z,1
2019-06-01T12:20:09.700Z,1
2019-06-01T12:21:16.924Z,1
2019-06-01T12:22:24.140Z,1
2019-06-01T12:23:31.091Z,1
2019-06-01T12:24:38.818Z,1
2019-06-01T12:25:46.942Z,1
2019-06-01T12:26:55.224Z,1
2019-06-01T12:28:02.444Z,1
2019-06-01T12:29:09.666Z,1
2019-06-01T12:30:16.895Z,1
2019-06-01T12:31:24.261Z,1
2019-06-01T12:32:31.216Z,1
2019-06-01T12:33:39.794Z,1
2019-06-01T12:34:48.584Z,1
2019-06-01T12:35:55.844Z,1
2019-06-01T12:37:03.074Z,1
2019-06-01T12:38:10.297Z,1
2019-06-01T12:39:17.241Z,1
2019-06-01T12:40:24.195Z,1
2019-06-01T12:41:31.416Z,1
2019-06-01T12:42:39.727Z,1
2019-06-01T12:43:49.943Z,1
2019-06-01T12:44:58.163Z,1
2019-06-01T12:46:07.449Z,1
2019-06-01T12:47:14.516Z,1
2019-06-01T12:48:21.742Z,1
2019-06-01T12:49:28.965Z,1
2019-06-01T12:50:36.181Z,1
2019-06-01T12:51:44.503Z,1
2019-06-01T12:52:55.192Z,1
2019-06-01T12:54:02.410Z,1
2019-06-01T12:55:09.631Z,1
2019-06-01T12:56:16.855Z,1
2019-06-01T12:57:24.075Z,1
2019-06-01T12:58:31.296Z,1
2019-06-01T12:59:38.553Z,1
2019-06-01T13:00:48.604Z,1
2019-06-01T13:01:55.821Z,1
2019-06-01T13:03:07.366Z,1
2019-06-01T13:04:15.004Z,1
2019-06-01T13:05:22.218Z,1
2019-06-01T13:06:29.445Z,1
2019-06-01T13:07:50.771Z,1
2019-06-01T13:09:09.179Z,1
2019-06-01T13:10:16.396Z,1
2019-06-01T13:11:23.617Z,1
2019-06-01T13:12:30.564Z,1
2019-06-01T13:13:37.842Z,1
2019-06-01T13:14:45.184Z,1
2019-06-01T13:15:53.272Z,1
2019-06-01T13:17:06.917Z,1
2019-06-01T13:18:14.799Z,1
2019-06-01T13:20:32.028Z,1
2019-06-01T13:21:39.247Z,1
2019-06-01T13:22:49.961Z,1
2019-06-01T13:23:58.671Z,1
2019-06-01T13:25:05.895Z,1
2019-06-01T13:26:12.849Z,1
2019-06-01T13:27:20.072Z,1
2019-06-01T13:28:37.523Z,1
2019-06-01T13:29:45.780Z,1
2019-06-01T13:30:54.245Z,1
2019-06-01T13:32:01.469Z,1
2019-06-01T13:33:08.419Z,1
2019-06-01T13:34:15.650Z,1
2019-06-01T13:35:22.875Z,1
2019-06-01T13:36:29.823Z,1
2019-06-01T13:37:37.049Z,1
2019-06-01T13:38:44.467Z,1
2019-06-01T13:39:57.572Z,1
2019-06-01T13:41:05.328Z,1
2019-06-01T13:42:12.302Z,1
2019-06-01T13:43:19.527Z,1
2019-06-01T13:44:26.207Z,1
2019-06-01T13:45:33.436Z,1
2019-06-01T13:46:40.660Z,1
2019-06-01T13:47:47.736Z,1
2019-06-01T13:48:57.393Z,1
2019-06-01T13:50:06.582Z,1
2019-06-01T13:51:14.199Z,1
2019-06-01T13:52:21.147Z,1
2019-06-01T13:53:28.378Z,1
2019-06-01T13:54:35.620Z,1
2019-06-01T13:55:46.590Z,1
2019-06-01T13:56:55.148Z,1
2019-06-01T13:58:02.413Z,1
2019-06-01T13:59:09.637Z,1
2019-06-01T14:00:29.383Z,1
2019-06-01T14:01:37.758Z,1
2019-06-01T14:02:48.678Z,1
2019-06-01T14:04:03.766Z,1
2019-06-01T14:05:10.994Z,1
2019-06-01T14:06:18.217Z,1
2019-06-01T14:07:25.444Z,1
2019-06-01T14:08:32.671Z,1
2019-06-01T14:09:39.620Z,1
2019-06-01T14:10:47.155Z,1
2019-06-01T14:11:55.568Z,1
2019-06-01T14:13:05.110Z,1
2019-06-01T14:14:12.588Z,1
2019-06-01T14:15:19.806Z,1
2019-06-01T14:16:27.031Z,1
2019-06-01T14:17:34.262Z,1
2019-06-01T14:18:41.482Z,1
2019-06-01T14:19:49.638Z,1
2019-06-01T14:20:58.040Z,1
2019-06-01T14:22:05.258Z,1
2019-06-01T14:23:12.482Z,1
2019-06-01T14:24:19.427Z,1
2019-06-01T14:25:26.372Z,1
2019-06-01T14:26:33.610Z,1
2019-06-01T14:27:40.838Z,1
2019-06-01T14:28:48.304Z,1
2019-06-01T14:29:57.923Z,1
2019-06-01T14:31:05.145Z,1
2019-06-01T14:32:12.424Z,1
2019-06-01T14:33:19.658Z,1
2019-06-01T14:34:26.885Z,1
2019-06-01T14:35:35.783Z,1
2019-06-01T14:36:43.177Z,1
2019-06-01T14:37:51.171Z,1
2019-06-01T14:39:02.834Z,1
2019-06-01T14:40:10.054Z,1
2019-06-01T14:41:17.347Z,1
2019-06-01T14:42:24.566Z,1
2019-06-01T14:43:31.791Z,1
2019-06-01T14:44:39.011Z,1
2019-06-01T14:45:47.316Z,1
2019-06-01T14:47:03.638Z,1
2019-06-01T14:48:13.026Z,1
2019-06-01T14:49:20.250Z,1
2019-06-01T14:50:26.916Z,1
2019-06-01T14:51:33.865Z,1
2019-06-01T14:52:41.090Z,1
2019-06-01T14:53:48.042Z,1
2019-06-01T14:54:57.994Z,1
2019-06-01T14:56:05.027Z,1
2019-06-01T14:57:12.324Z,1
2019-06-01T14:58:18.736Z,1
2019-06-01T14:59:25.963Z,1
2019-06-01T15:00:33.198Z,1
2019-06-01T15:01:40.428Z,1
2019-06-01T15:02:48.195Z,1
2019-06-01T15:03:58.390Z,1
2019-06-01T15:05:05.687Z,1
2019-06-01T15:06:12.907Z,1
2019-06-01T15:07:19.852Z,1
2019-06-01T15:08:27.080Z,1
2019-06-01T15:09:34.320Z,1
2019-06-01T15:10:41.546Z,1
2019-06-01T15:11:48.964Z,1
2019-06-01T15:13:02.467Z,1
2019-06-01T15:14:10.391Z,1
2019-06-01T15:15:17.563Z,1
2019-06-01T15:16:24.505Z,1
2019-06-01T15:17:31.728Z,1
2019-06-01T15:18:38.955Z,1
2019-06-01T15:19:46.182Z,1
2019-06-01T15:20:53.767Z,1
2019-06-01T15:23:24.055Z,1
2019-06-01T15:24:31.334Z,1
2019-06-01T15:25:38.560Z,1
2019-06-01T15:26:45.794Z,1
2019-06-01T15:27:53.039Z,1
2019-06-01T15:29:03.146Z,1
2019-06-01T15:30:10.451Z,1
2019-06-01T15:31:17.656Z,1
2019-06-01T15:32:26.689Z,1
2019-06-01T15:33:33.759Z,1
2019-06-01T15:34:40.994Z,1
2019-06-01T15:35:47.946Z,1
2019-06-01T15:36:55.547Z,1
2019-06-01T15:38:04.604Z,1
2019-06-01T15:39:23.926Z,1
2019-06-01T15:40:32.436Z,1
2019-06-01T15:41:39.671Z,1
2019-06-01T15:42:46.900Z,1
2019-06-01T15:43:54.922Z,1
2019-06-01T15:45:03.356Z,1
2019-06-01T15:46:10.581Z,1
2019-06-01T15:47:17.256Z,1
2019-06-01T15:48:24.483Z,1
2019-06-01T15:49:31.441Z,1
2019-06-01T15:50:38.390Z,1
2019-06-01T15:51:45.608Z,1
2019-06-01T15:52:53.096Z,1
2019-06-01T15:54:03.261Z,1
2019-06-01T15:55:10.563Z,1
2019-06-01T15:57:39.666Z,1
2019-06-01T15:58:52.631Z,1
2019-06-01T16:00:05.981Z,1